Republic, Washington
Current Conditions -  °F | °C
As of 9:53 AM on Saturday 25 Oct 2014 (Local Time) from KOMK Reporting Station
Clear Clear  
Wind Chill: 45°   Ceiling: Unl
Heat Index: 48°   Visibility: 10mi
Dew Point: 43°   Wind: 7mph
Humidity: 83%   Direction: 50°NE
Pressure: 29.66"   Gusts: NA
Location:  48.65°N, 118.74°W
Report Text: KOMK 251653Z AUTO 05006KT 10SM CLR 09/06 A2966 RMK AO2 SLP047 T00890061
Loading
Personal Weather Stations






























Interactive Weather Map New forecast layout! Learn more

10-Day Weather Forecast

Advertisements
Track Severe Weather on mobile